Time;durP1;ratioP1;P1;durP2;ratioP2;P2;SDS_P1;SDS_P2;PMS_P1;PMS_P2;Temp;Humidity;BMP_temperature;BMP_pressure;BME280_temperature;BME280_humidity;BME280_pressure;Samples;Min_cycle;Max_cycle;Signal;HPM_P1;HPM_P2
2021/09/12 00:00:24;;;;;;;3.33;1.70;;;;;;;;;;4942843;28;20532;-76
2021/09/12 00:02:50;;;;;;;2.42;1.75;;;;;;;;;;4943398;29;20042;-75
2021/09/12 00:05:16;;;;;;;8.48;2.25;;;;;;;;;;4922150;29;20078;-76
2021/09/12 00:07:41;;;;;;;4.97;2.10;;;;;;;;;;4947089;28;20106;-75
2021/09/12 00:10:07;;;;;;;3.30;2.40;;;;;;;;;;4944803;28;20034;-75
2021/09/12 00:12:33;;;;;;;5.30;2.22;;;;;;;;;;4944839;28;20063;-76
2021/09/12 00:14:58;;;;;;;7.25;2.78;;;;;;;;;;4912541;29;20141;-76
2021/09/12 00:17:24;;;;;;;4.80;2.25;;;;;;;;;;4944774;29;20031;-76
2021/09/12 00:19:50;;;;;;;3.78;2.20;;;;;;;;;;4940514;29;20024;-75
2021/09/12 00:22:15;;;;;;;5.28;2.38;;;;;;;;;;4945631;28;20566;-75
2021/09/12 00:24:41;;;;;;;3.20;2.25;;;;;;;;;;4943647;28;20155;-75
2021/09/12 00:27:06;;;;;;;5.30;2.45;;;;;;;;;;4938603;28;20142;-75
2021/09/12 00:29:32;;;;;;;10.95;3.03;;;;;;;;;;4940579;29;20028;-75
2021/09/12 00:31:57;;;;;;;5.70;2.28;;;;;;;;;;4938779;29;20046;-75
2021/09/12 00:34:23;;;;;;;6.85;2.47;;;;;;;;;;4943721;28;20035;-75
2021/09/12 00:36:48;;;;;;;4.85;2.35;;;;;;;;;;4942558;28;20122;-75
2021/09/12 00:39:13;;;;;;;9.82;2.55;;;;;;;;;;4942644;29;20046;-75
2021/09/12 00:41:41;;;;;;;5.72;2.75;;;;;;;;;;4928769;29;20054;-75
2021/09/12 00:44:10;;;;;;;4.68;2.63;;;;;;;;;;4948887;29;20035;-75
2021/09/12 00:46:44;;;;;;;4.43;2.60;;;;;;;;;;4944461;28;20087;-75
2021/09/12 00:49:10;;;;;;;7.20;2.50;;;;;;;;;;4937756;29;20043;-76
2021/09/12 00:51:36;;;;;;;6.22;2.80;;;;;;;;;;4937578;29;20039;-76
2021/09/12 00:54:04;;;;;;;4.18;2.75;;;;;;;;;;4947323;28;20031;-76
2021/09/12 00:56:30;;;;;;;6.00;2.58;;;;;;;;;;4940881;28;20042;-75
2021/09/12 00:58:59;;;;;;;4.80;2.80;;;;;;;;;;4944773;28;20094;-75
2021/09/12 01:01:28;;;;;;;6.43;2.65;;;;;;;;;;4941713;28;20797;-75
2021/09/12 01:03:54;;;;;;;9.00;3.03;;;;;;;;;;4947943;28;20019;-75
2021/09/12 01:06:20;;;;;;;6.85;3.15;;;;;;;;;;4938348;28;20034;-75
2021/09/12 01:08:46;;;;;;;9.32;3.17;;;;;;;;;;4939666;28;20126;-76
2021/09/12 01:11:12;;;;;;;10.95;3.38;;;;;;;;;;4943157;28;20031;-76
2021/09/12 01:13:39;;;;;;;7.85;2.83;;;;;;;;;;4936051;29;20031;-75
2021/09/12 01:16:17;;;;;;;8.57;3.20;;;;;;;;;;4943492;28;20039;-75
2021/09/12 01:18:45;;;;;;;9.00;3.20;;;;;;;;;;4943436;29;20039;-75
2021/09/12 01:21:20;;;;;;;5.15;2.95;;;;;;;;;;4941374;29;20065;-75
2021/09/12 01:23:46;;;;;;;5.50;3.25;;;;;;;;;;4944873;28;20057;-76
2021/09/12 01:26:12;;;;;;;8.77;3.35;;;;;;;;;;4938956;28;20034;-75
2021/09/12 01:28:42;;;;;;;8.23;3.08;;;;;;;;;;4917254;29;20461;-76
2021/09/12 01:31:18;;;;;;;8.50;3.13;;;;;;;;;;4937370;29;20036;-76
2021/09/12 01:33:43;;;;;;;6.47;3.40;;;;;;;;;;4947164;29;20532;-75
2021/09/12 01:36:09;;;;;;;5.72;3.15;;;;;;;;;;4956089;28;20122;-75
2021/09/12 01:38:34;;;;;;;8.75;3.70;;;;;;;;;;4941385;29;20041;-76
2021/09/12 01:41:00;;;;;;;5.88;3.35;;;;;;;;;;4944563;28;20043;-75
2021/09/12 01:43:25;;;;;;;6.85;3.15;;;;;;;;;;4921543;29;20027;-76
2021/09/12 01:45:51;;;;;;;7.00;3.25;;;;;;;;;;4914840;29;20695;-75
2021/09/12 01:48:16;;;;;;;6.72;3.20;;;;;;;;;;4911784;29;20047;-75
2021/09/12 01:50:42;;;;;;;7.13;3.53;;;;;;;;;;4916434;29;20380;-75
2021/09/12 01:53:07;;;;;;;6.65;4.03;;;;;;;;;;4920246;29;20067;-75
2021/09/12 01:55:33;;;;;;;6.30;3.70;;;;;;;;;;4958563;28;20556;-76
2021/09/12 01:57:58;;;;;;;9.55;4.00;;;;;;;;;;4922537;29;20070;-75
2021/09/12 02:00:24;;;;;;;9.30;3.53;;;;;;;;;;4945709;28;20051;-75
2021/09/12 02:02:49;;;;;;;10.85;3.58;;;;;;;;;;4945472;29;20093;-75
2021/09/12 02:05:16;;;;;;;7.00;3.42;;;;;;;;;;4916093;29;20132;-75
2021/09/12 02:07:42;;;;;;;9.48;4.10;;;;;;;;;;4941027;28;20117;-76
2021/09/12 02:10:08;;;;;;;8.07;4.10;;;;;;;;;;4936074;29;20440;-75
2021/09/12 02:12:33;;;;;;;11.52;4.30;;;;;;;;;;4937458;28;20032;-75
2021/09/12 02:14:58;;;;;;;6.40;4.30;;;;;;;;;;4922073;29;20496;-75
2021/09/12 02:17:24;;;;;;;15.30;4.88;;;;;;;;;;4947323;29;20038;-76
2021/09/12 02:19:50;;;;;;;11.00;4.78;;;;;;;;;;4938452;29;20031;-75
2021/09/12 02:22:16;;;;;;;10.27;5.03;;;;;;;;;;4927612;29;20046;-76
2021/09/12 02:24:41;;;;;;;12.73;5.35;;;;;;;;;;4941231;29;20544;-75
2021/09/12 02:27:07;;;;;;;9.95;6.53;;;;;;;;;;4934595;29;20163;-75
2021/09/12 02:29:32;;;;;;;10.13;6.22;;;;;;;;;;4949891;28;20497;-75
2021/09/12 02:31:58;;;;;;;15.57;5.88;;;;;;;;;;4933647;29;20035;-75
2021/09/12 02:34:23;;;;;;;18.20;7.18;;;;;;;;;;4945695;29;20042;-75
2021/09/12 02:36:49;;;;;;;18.08;7.13;;;;;;;;;;4931637;28;20480;-75
2021/09/12 02:39:14;;;;;;;10.75;6.57;;;;;;;;;;4939541;29;20034;-75
2021/09/12 02:41:40;;;;;;;11.38;6.88;;;;;;;;;;4943381;29;20042;-75
2021/09/12 02:44:05;;;;;;;11.48;6.82;;;;;;;;;;4942040;29;20031;-75
2021/09/12 02:46:31;;;;;;;13.05;6.80;;;;;;;;;;4948319;28;20496;-75
2021/09/12 02:48:57;;;;;;;11.70;6.70;;;;;;;;;;4924127;29;20141;-74
2021/09/12 02:51:23;;;;;;;12.38;6.82;;;;;;;;;;4943837;29;20091;-74
2021/09/12 02:53:49;;;;;;;11.15;6.35;;;;;;;;;;4940235;29;20078;-75
2021/09/12 02:56:14;;;;;;;17.48;6.35;;;;;;;;;;4930290;29;20484;-75
2021/09/12 02:58:40;;;;;;;12.35;7.35;;;;;;;;;;4938264;28;20109;-75
2021/09/12 03:01:05;;;;;;;10.85;6.00;;;;;;;;;;4933621;29;20401;-75
2021/09/12 03:03:31;;;;;;;11.30;6.90;;;;;;;;;;4927727;29;20032;-75
2021/09/12 03:05:56;;;;;;;12.75;6.47;;;;;;;;;;4939269;28;20039;-74
2021/09/12 03:08:22;;;;;;;14.82;6.32;;;;;;;;;;4954912;28;20031;-75
2021/09/12 03:10:47;;;;;;;13.50;6.43;;;;;;;;;;4944685;28;20089;-75
2021/09/12 03:13:13;;;;;;;14.80;6.10;;;;;;;;;;4943855;28;20046;-75
2021/09/12 03:15:39;;;;;;;13.48;6.45;;;;;;;;;;4940699;29;20155;-75
2021/09/12 03:18:05;;;;;;;17.40;6.70;;;;;;;;;;4943471;29;20039;-75
2021/09/12 03:20:31;;;;;;;11.10;6.82;;;;;;;;;;4963395;28;20035;-74
2021/09/12 03:22:56;;;;;;;12.35;6.03;;;;;;;;;;4952007;28;20047;-75
2021/09/12 03:25:22;;;;;;;14.73;6.43;;;;;;;;;;4941832;29;20562;-75
2021/09/12 03:27:48;;;;;;;11.45;6.20;;;;;;;;;;4953067;28;20082;-75
2021/09/12 03:30:14;;;;;;;21.85;6.75;;;;;;;;;;4939148;29;20110;-75
2021/09/12 03:32:40;;;;;;;19.15;6.68;;;;;;;;;;4945411;29;20833;-74
2021/09/12 03:35:05;;;;;;;12.80;6.38;;;;;;;;;;4950405;29;20050;-74
2021/09/12 03:37:31;;;;;;;14.57;6.97;;;;;;;;;;4941427;28;20678;-75
2021/09/12 03:39:56;;;;;;;14.18;7.38;;;;;;;;;;4947947;28;20515;-75
2021/09/12 03:42:22;;;;;;;15.88;7.97;;;;;;;;;;4943660;28;20095;-74
2021/09/12 03:44:47;;;;;;;16.23;7.65;;;;;;;;;;4947817;28;20038;-75
2021/09/12 03:47:13;;;;;;;13.65;7.30;;;;;;;;;;4944115;28;20046;-75
2021/09/12 03:49:38;;;;;;;10.85;7.00;;;;;;;;;;4942373;29;20039;-75
2021/09/12 03:52:04;;;;;;;18.38;7.78;;;;;;;;;;4939083;29;20464;-75
2021/09/12 03:54:30;;;;;;;17.80;7.97;;;;;;;;;;4949315;29;20089;-74
2021/09/12 03:56:55;;;;;;;12.80;7.95;;;;;;;;;;4939829;28;20126;-74
2021/09/12 03:59:21;;;;;;;13.93;8.45;;;;;;;;;;4941071;29;20699;-75
2021/09/12 04:01:46;;;;;;;16.75;8.57;;;;;;;;;;4942439;28;20053;-75
2021/09/12 04:04:11;;;;;;;13.20;8.77;;;;;;;;;;4941942;29;20066;-75
2021/09/12 04:06:37;;;;;;;19.27;8.75;;;;;;;;;;4922991;29;20118;-75
2021/09/12 04:09:02;;;;;;;15.88;9.50;;;;;;;;;;4942107;29;20028;-74
2021/09/12 04:11:28;;;;;;;17.27;8.75;;;;;;;;;;4934679;29;20124;-74
2021/09/12 04:13:54;;;;;;;20.42;7.80;;;;;;;;;;4945434;29;20085;-74
2021/09/12 04:16:19;;;;;;;15.77;9.27;;;;;;;;;;4937536;29;20039;-74
2021/09/12 04:18:45;;;;;;;20.08;8.65;;;;;;;;;;4939566;29;20031;-75
2021/09/12 04:21:10;;;;;;;15.57;7.65;;;;;;;;;;4941478;29;20027;-75
2021/09/12 04:23:36;;;;;;;16.75;8.50;;;;;;;;;;4939601;29;20438;-74
2021/09/12 04:26:03;;;;;;;14.60;7.97;;;;;;;;;;4927242;29;20053;-75
2021/09/12 04:28:29;;;;;;;13.43;8.30;;;;;;;;;;4937205;29;20027;-75
2021/09/12 04:30:55;;;;;;;16.55;9.32;;;;;;;;;;4940845;29;20510;-74
2021/09/12 04:33:21;;;;;;;18.92;9.02;;;;;;;;;;4941400;29;20567;-75
2021/09/12 04:35:47;;;;;;;15.93;9.18;;;;;;;;;;4941429;28;20047;-75
2021/09/12 04:38:12;;;;;;;15.30;9.02;;;;;;;;;;4944288;28;20643;-75
2021/09/12 04:40:38;;;;;;;15.88;9.35;;;;;;;;;;4941216;29;20054;-75
2021/09/12 04:43:03;;;;;;;16.05;8.45;;;;;;;;;;4918497;29;20032;-74
2021/09/12 04:45:29;;;;;;;17.42;8.48;;;;;;;;;;4955416;28;20027;-76
2021/09/12 04:47:54;;;;;;;16.15;8.27;;;;;;;;;;4943130;29;20031;-76
2021/09/12 04:50:20;;;;;;;19.27;9.10;;;;;;;;;;4938166;28;20027;-76
2021/09/12 04:52:47;;;;;;;26.90;9.32;;;;;;;;;;4939832;29;20425;-76
2021/09/12 04:55:13;;;;;;;15.02;9.25;;;;;;;;;;4928361;29;20035;-76
2021/09/12 04:57:38;;;;;;;15.50;9.55;;;;;;;;;;4954263;28;20493;-76
2021/09/12 05:00:05;;;;;;;23.67;9.25;;;;;;;;;;4951370;28;20082;-75
2021/09/12 05:02:30;;;;;;;17.13;9.10;;;;;;;;;;4928659;29;20382;-76
2021/09/12 05:04:56;;;;;;;13.50;7.53;;;;;;;;;;4949404;29;20138;-76
2021/09/12 05:07:21;;;;;;;18.15;9.30;;;;;;;;;;4940534;28;20115;-75
2021/09/12 05:09:47;;;;;;;16.63;8.43;;;;;;;;;;4948105;29;20035;-76
2021/09/12 05:12:12;;;;;;;19.95;8.32;;;;;;;;;;4942609;28;20494;-76
2021/09/12 05:14:38;;;;;;;17.40;8.95;;;;;;;;;;4914736;29;20074;-75
2021/09/12 05:17:03;;;;;;;15.63;8.48;;;;;;;;;;4948126;28;20043;-75
2021/09/12 05:19:29;;;;;;;25.65;9.00;;;;;;;;;;4955972;28;20086;-76
2021/09/12 05:21:54;;;;;;;15.02;8.52;;;;;;;;;;4948038;28;20034;-76
2021/09/12 05:24:20;;;;;;;15.80;9.20;;;;;;;;;;4929481;29;20039;-75
2021/09/12 05:26:45;;;;;;;20.38;9.20;;;;;;;;;;4940723;29;20050;-75
2021/09/12 05:29:11;;;;;;;14.82;9.15;;;;;;;;;;4940272;28;20591;-76
2021/09/12 05:31:36;;;;;;;18.25;9.43;;;;;;;;;;4943860;28;20074;-76
2021/09/12 05:34:02;;;;;;;18.02;8.10;;;;;;;;;;4941789;29;20504;-76
2021/09/12 05:36:27;;;;;;;19.02;9.32;;;;;;;;;;4922938;29;20031;-74
2021/09/12 05:38:53;;;;;;;18.15;8.95;;;;;;;;;;4926323;29;20039;-74
2021/09/12 05:41:18;;;;;;;17.88;9.63;;;;;;;;;;4938591;28;20086;-75
2021/09/12 05:43:44;;;;;;;14.93;8.52;;;;;;;;;;4944107;29;20042;-75
2021/09/12 05:46:09;;;;;;;17.95;9.32;;;;;;;;;;4939081;29;20719;-75
2021/09/12 05:48:35;;;;;;;13.02;8.27;;;;;;;;;;4941017;28;20031;-76
2021/09/12 05:51:02;;;;;;;16.58;8.98;;;;;;;;;;4938235;29;20035;-76
2021/09/12 05:53:28;;;;;;;18.00;8.75;;;;;;;;;;4938241;29;20089;-76
2021/09/12 05:55:53;;;;;;;23.40;9.73;;;;;;;;;;4913198;29;20131;-76
2021/09/12 05:58:19;;;;;;;14.70;9.15;;;;;;;;;;4941637;29;20118;-76
2021/09/12 06:00:44;;;;;;;20.15;8.25;;;;;;;;;;4936256;29;20605;-76
2021/09/12 06:03:10;;;;;;;22.13;9.00;;;;;;;;;;4937179;28;20440;-76
2021/09/12 06:05:35;;;;;;;15.98;9.70;;;;;;;;;;4934126;28;20891;-75
2021/09/12 06:08:01;;;;;;;21.15;9.32;;;;;;;;;;4935248;28;20035;-75
2021/09/12 06:10:27;;;;;;;23.67;9.52;;;;;;;;;;4948565;29;20097;-75
2021/09/12 06:12:52;;;;;;;22.17;10.55;;;;;;;;;;4941767;29;20090;-75
2021/09/12 06:15:18;;;;;;;15.20;9.27;;;;;;;;;;4938815;29;20031;-75
2021/09/12 06:17:43;;;;;;;20.98;8.63;;;;;;;;;;4938751;29;20031;-75
2021/09/12 06:20:09;;;;;;;16.23;9.32;;;;;;;;;;4951839;28;20129;-76
2021/09/12 06:22:41;;;;;;;18.80;7.93;;;;;;;;;;4941958;29;20035;-75
2021/09/12 06:25:07;;;;;;;18.80;8.35;;;;;;;;;;4944505;28;20429;-75
2021/09/12 06:27:32;;;;;;;15.38;6.95;;;;;;;;;;4938741;28;20045;-75
2021/09/12 06:29:58;;;;;;;15.02;6.93;;;;;;;;;;4942908;28;20378;-75
2021/09/12 06:32:23;;;;;;;14.23;6.53;;;;;;;;;;4952268;28;20054;-75
2021/09/12 06:34:49;;;;;;;19.52;6.03;;;;;;;;;;4945217;29;20035;-75
2021/09/12 06:37:14;;;;;;;12.27;6.25;;;;;;;;;;4937821;29;20413;-75
2021/09/12 06:39:40;;;;;;;12.32;6.00;;;;;;;;;;4924334;29;20058;-75
2021/09/12 06:42:05;;;;;;;12.82;6.00;;;;;;;;;;4944929;29;20051;-75
2021/09/12 06:44:31;;;;;;;11.15;5.53;;;;;;;;;;4935262;28;20671;-75
2021/09/12 06:46:57;;;;;;;9.68;5.03;;;;;;;;;;4938355;29;20497;-75
2021/09/12 06:49:22;;;;;;;14.77;5.35;;;;;;;;;;4942257;28;20568;-75
2021/09/12 06:51:48;;;;;;;13.57;5.03;;;;;;;;;;4945965;28;20046;-75
2021/09/12 06:54:13;;;;;;;12.48;5.90;;;;;;;;;;4915441;29;20564;-75
2021/09/12 06:56:39;;;;;;;10.18;6.13;;;;;;;;;;4941523;28;20042;-75
2021/09/12 06:59:04;;;;;;;16.83;5.53;;;;;;;;;;4923898;29;20553;-75
2021/09/12 07:01:30;;;;;;;18.25;5.60;;;;;;;;;;4935793;29;20054;-75
2021/09/12 07:03:55;;;;;;;11.60;5.05;;;;;;;;;;4939923;28;20646;-75
2021/09/12 07:06:21;;;;;;;15.10;4.80;;;;;;;;;;4940981;29;20770;-75
2021/09/12 07:08:46;;;;;;;15.10;5.25;;;;;;;;;;4938940;29;20579;-76
2021/09/12 07:11:13;;;;;;;15.35;5.35;;;;;;;;;;4937686;28;20540;-75
2021/09/12 07:13:40;;;;;;;11.80;4.85;;;;;;;;;;4910535;29;20597;-76
2021/09/12 07:16:06;;;;;;;12.82;4.57;;;;;;;;;;4946363;29;20544;-75
2021/09/12 07:18:32;;;;;;;12.23;4.75;;;;;;;;;;4927797;29;20044;-76
2021/09/12 07:20:58;;;;;;;8.95;4.95;;;;;;;;;;4944023;29;20039;-76
2021/09/12 07:23:23;;;;;;;15.70;4.15;;;;;;;;;;4924812;29;20042;-75
2021/09/12 07:25:49;;;;;;;9.40;4.80;;;;;;;;;;4941973;29;20039;-76
2021/09/12 07:28:14;;;;;;;12.45;4.93;;;;;;;;;;4924514;29;20477;-75
2021/09/12 07:30:40;;;;;;;17.25;4.72;;;;;;;;;;4939544;29;20031;-75
2021/09/12 07:33:05;;;;;;;10.63;3.92;;;;;;;;;;4940467;28;20047;-75
2021/09/12 07:35:31;;;;;;;9.50;3.72;;;;;;;;;;4957412;28;20115;-75
2021/09/12 07:37:56;;;;;;;13.02;3.65;;;;;;;;;;4938972;29;20035;-75
2021/09/12 07:40:22;;;;;;;8.38;3.40;;;;;;;;;;4923835;29;20054;-75
2021/09/12 07:42:48;;;;;;;9.02;2.80;;;;;;;;;;4940856;28;20075;-76
2021/09/12 07:45:14;;;;;;;12.43;3.90;;;;;;;;;;4954913;28;20032;-75
2021/09/12 07:47:40;;;;;;;13.52;2.90;;;;;;;;;;4938192;28;20039;-75
2021/09/12 07:50:06;;;;;;;8.73;3.40;;;;;;;;;;4923326;29;20031;-75
2021/09/12 07:52:32;;;;;;;21.30;3.72;;;;;;;;;;4936190;29;20032;-75
2021/09/12 07:54:57;;;;;;;14.07;3.47;;;;;;;;;;4940035;28;20853;-75
2021/09/12 07:57:23;;;;;;;5.43;2.53;;;;;;;;;;4936607;28;20374;-75
2021/09/12 07:59:48;;;;;;;7.45;2.45;;;;;;;;;;4943227;29;20055;-75
2021/09/12 08:02:14;;;;;;;4.43;2.38;;;;;;;;;;4939693;28;20058;-75
2021/09/12 08:04:39;;;;;;;7.63;2.60;;;;;;;;;;4931162;29;20027;-75
2021/09/12 08:07:05;;;;;;;5.90;2.60;;;;;;;;;;4939936;29;20058;-75
2021/09/12 08:09:31;;;;;;;4.85;2.28;;;;;;;;;;4910077;29;20040;-75
2021/09/12 08:11:56;;;;;;;8.52;2.42;;;;;;;;;;4945429;29;20074;-75
2021/09/12 08:14:22;;;;;;;4.50;1.95;;;;;;;;;;4911429;29;20031;-75
2021/09/12 08:16:47;;;;;;;12.60;2.00;;;;;;;;;;4938235;29;20027;-74
2021/09/12 08:19:13;;;;;;;5.35;2.20;;;;;;;;;;4949241;28;20026;-75
2021/09/12 08:21:38;;;;;;;4.40;2.00;;;;;;;;;;4947017;29;20976;-75
2021/09/12 08:24:05;;;;;;;10.77;2.25;;;;;;;;;;4963079;28;20139;-75
2021/09/12 08:26:31;;;;;;;5.40;2.40;;;;;;;;;;4913580;29;20069;-75
2021/09/12 08:28:56;;;;;;;9.73;2.10;;;;;;;;;;4945207;29;20091;-75
2021/09/12 08:31:22;;;;;;;8.43;2.00;;;;;;;;;;4937787;29;20043;-75
2021/09/12 08:33:47;;;;;;;7.35;2.58;;;;;;;;;;4939492;28;20023;-75
2021/09/12 08:36:13;;;;;;;6.70;2.50;;;;;;;;;;4942653;28;20023;-76
2021/09/12 08:38:39;;;;;;;10.50;3.10;;;;;;;;;;4927804;29;20035;-76
2021/09/12 08:41:05;;;;;;;10.18;2.75;;;;;;;;;;4940422;28;20421;-75
2021/09/12 08:43:32;;;;;;;8.77;2.65;;;;;;;;;;4941979;28;20040;-75
2021/09/12 08:45:57;;;;;;;8.43;3.05;;;;;;;;;;4938271;28;20110;-75
2021/09/12 08:48:24;;;;;;;7.53;2.88;;;;;;;;;;4939005;28;20134;-75
2021/09/12 08:50:50;;;;;;;7.38;2.72;;;;;;;;;;4911896;29;20039;-76
2021/09/12 08:53:15;;;;;;;10.10;2.42;;;;;;;;;;4941951;29;20053;-75
2021/09/12 08:55:41;;;;;;;11.40;3.42;;;;;;;;;;4929785;29;20032;-75
2021/09/12 08:58:06;;;;;;;13.77;3.58;;;;;;;;;;4944915;29;20039;-75
2021/09/12 09:00:32;;;;;;;18.23;4.18;;;;;;;;;;4942958;29;20043;-75
2021/09/12 09:02:59;;;;;;;9.35;2.80;;;;;;;;;;4945446;28;20046;-75
2021/09/12 09:05:36;;;;;;;7.25;2.65;;;;;;;;;;4939479;28;20398;-75
2021/09/12 09:08:09;;;;;;;6.45;2.33;;;;;;;;;;4940089;28;20024;-75
2021/09/12 09:10:42;;;;;;;4.53;2.47;;;;;;;;;;4935814;28;20059;-75
2021/09/12 09:13:37;;;;;;;7.22;2.70;;;;;;;;;;5155948;27;20421;-74
2021/09/12 09:23:11;;;;;;;5.93;2.50;;;;;;;;;;5086770;27;1332020;-75
2021/09/12 09:25:37;;;;;;;5.78;2.78;;;;;;;;;;5117254;27;20118;-74
2021/09/12 09:28:07;;;;;;;6.57;2.83;;;;;;;;;;5122241;27;20031;-74
2021/09/12 09:30:51;;;;;;;4.65;2.75;;;;;;;;;;5132905;27;20035;-75
2021/09/12 09:33:25;;;;;;;9.90;3.03;;;;;;;;;;5122441;27;20027;-74
2021/09/12 09:36:14;;;;;;;13.63;3.00;;;;;;;;;;5116948;28;20508;-75
2021/09/12 09:38:40;;;;;;;9.18;2.90;;;;;;;;;;5100752;28;20035;-76
2021/09/12 09:41:05;;;;;;;11.02;3.10;;;;;;;;;;5122686;27;20041;-74
2021/09/12 09:43:49;;;;;;;5.07;2.70;;;;;;;;;;5124697;27;20770;-75
2021/09/12 09:46:28;;;;;;;7.68;2.85;;;;;;;;;;5112506;28;20118;-75
2021/09/12 09:48:54;;;;;;;7.32;2.92;;;;;;;;;;5119891;28;20023;-75
2021/09/12 09:51:21;;;;;;;8.07;2.88;;;;;;;;;;5115117;28;20036;-75
2021/09/12 09:53:47;;;;;;;7.20;2.95;;;;;;;;;;5116574;28;20042;-75
2021/09/12 09:56:12;;;;;;;6.15;2.72;;;;;;;;;;5120614;27;20025;-74
2021/09/12 09:58:38;;;;;;;5.15;3.03;;;;;;;;;;5123367;28;20039;-74
2021/09/12 10:01:04;;;;;;;4.55;2.65;;;;;;;;;;5122300;27;20054;-74
2021/09/12 10:03:30;;;;;;;7.68;2.63;;;;;;;;;;5117967;28;20365;-74
2021/09/12 10:05:56;;;;;;;6.93;2.42;;;;;;;;;;5107386;28;20616;-74
2021/09/12 10:08:23;;;;;;;5.50;2.10;;;;;;;;;;5117256;28;20059;-75
2021/09/12 10:10:49;;;;;;;8.57;2.50;;;;;;;;;;5119618;28;20112;-75
2021/09/12 10:13:16;;;;;;;2.67;1.90;;;;;;;;;;5116586;28;20067;-75
2021/09/12 10:15:47;;;;;;;3.80;2.20;;;;;;;;;;5119289;28;20030;-74
2021/09/12 10:18:13;;;;;;;5.22;2.22;;;;;;;;;;5121381;28;20080;-74
2021/09/12 10:20:40;;;;;;;3.33;2.15;;;;;;;;;;5121709;28;20047;-74
2021/09/12 10:23:12;;;;;;;6.20;1.98;;;;;;;;;;5095811;28;20084;-74
2021/09/12 10:25:49;;;;;;;7.82;2.15;;;;;;;;;;5113563;28;20068;-74
2021/09/12 10:28:31;;;;;;;4.43;2.22;;;;;;;;;;5120362;28;20023;-74
2021/09/12 10:30:57;;;;;;;7.90;2.75;;;;;;;;;;5111805;28;20393;-74
2021/09/12 10:33:28;;;;;;;8.13;2.67;;;;;;;;;;5104240;28;20038;-75
2021/09/12 10:36:00;;;;;;;8.48;1.73;;;;;;;;;;5103533;28;20042;-74
2021/09/12 10:38:37;;;;;;;7.68;1.92;;;;;;;;;;5103827;28;20027;-74
2021/09/12 10:41:02;;;;;;;6.35;2.00;;;;;;;;;;5104465;27;20039;-74
2021/09/12 10:43:29;;;;;;;7.35;2.60;;;;;;;;;;5110041;28;20030;-75
2021/09/12 10:46:03;;;;;;;5.35;2.05;;;;;;;;;;5099577;28;20070;-74
2021/09/12 10:48:31;;;;;;;5.07;1.67;;;;;;;;;;5103011;28;20028;-74
2021/09/12 10:50:58;;;;;;;19.05;3.47;;;;;;;;;;5099941;28;20020;-74
2021/09/12 10:53:43;;;;;;;8.73;2.70;;;;;;;;;;5098889;28;20034;-74
2021/09/12 10:56:09;;;;;;;4.15;1.77;;;;;;;;;;5102120;28;20108;-74
2021/09/12 10:58:35;;;;;;;3.85;1.73;;;;;;;;;;5104415;28;20618;-74
2021/09/12 11:01:02;;;;;;;4.18;1.63;;;;;;;;;;5093569;28;20057;-75
2021/09/12 11:03:29;;;;;;;7.53;1.90;;;;;;;;;;5083687;28;20032;-75
2021/09/12 11:05:55;;;;;;;4.38;2.20;;;;;;;;;;5104663;28;20027;-74
2021/09/12 11:08:38;;;;;;;6.72;2.10;;;;;;;;;;5100386;28;20081;-75
2021/09/12 11:11:06;;;;;;;3.95;1.80;;;;;;;;;;5088815;28;20040;-74
2021/09/12 11:13:33;;;;;;;6.63;1.75;;;;;;;;;;5119464;27;20591;-74
2021/09/12 11:16:08;;;;;;;3.70;1.85;;;;;;;;;;5086646;28;20394;-75
2021/09/12 11:19:01;;;;;;;5.13;2.10;;;;;;;;;;5097807;28;20066;-74
2021/09/12 11:21:34;;;;;;;7.13;1.80;;;;;;;;;;5095650;28;20497;-75
2021/09/12 11:24:03;;;;;;;7.25;2.08;;;;;;;;;;5106903;27;20518;-74
2021/09/12 11:26:52;;;;;;;5.65;2.13;;;;;;;;;;5100376;28;20077;-74
2021/09/12 11:29:21;;;;;;;11.85;2.15;;;;;;;;;;5105221;27;20484;-74
2021/09/12 11:32:10;;;;;;;4.15;1.63;;;;;;;;;;5106378;28;20103;-74
2021/09/12 11:34:39;;;;;;;3.95;1.83;;;;;;;;;;5090586;28;20409;-74
2021/09/12 11:37:15;;;;;;;8.02;2.17;;;;;;;;;;5106947;28;20107;-74
2021/09/12 11:39:43;;;;;;;9.95;2.40;;;;;;;;;;5108168;28;20023;-75
2021/09/12 11:42:11;;;;;;;8.52;2.28;;;;;;;;;;5107775;28;20533;-75
2021/09/12 11:44:44;;;;;;;4.50;1.60;;;;;;;;;;5105480;28;20054;-75
2021/09/12 11:47:18;;;;;;;4.55;1.92;;;;;;;;;;5107356;28;20059;-74
2021/09/12 11:49:45;;;;;;;6.30;1.33;;;;;;;;;;5097975;28;20122;-75
2021/09/12 11:52:11;;;;;;;12.85;1.98;;;;;;;;;;5100078;28;20095;-75
2021/09/12 11:54:37;;;;;;;7.30;1.77;;;;;;;;;;5105314;28;20028;-75
2021/09/12 11:57:11;;;;;;;5.07;1.38;;;;;;;;;;5103539;28;20031;-75
2021/09/12 11:59:42;;;;;;;5.10;1.52;;;;;;;;;;5098882;28;20026;-74
2021/09/12 12:02:13;;;;;;;8.30;1.63;;;;;;;;;;5097427;28;20028;-75
2021/09/12 12:04:40;;;;;;;7.03;1.93;;;;;;;;;;5100947;28;20030;-74
2021/09/12 12:07:06;;;;;;;8.73;1.60;;;;;;;;;;5087484;28;20040;-74
2021/09/12 12:09:39;;;;;;;4.00;1.67;;;;;;;;;;5087451;28;20028;-74
2021/09/12 12:12:08;;;;;;;4.20;1.45;;;;;;;;;;5104668;28;20042;-74
2021/09/12 12:15:11;;;;;;;11.25;2.08;;;;;;;;;;5102803;28;20035;-74
2021/09/12 12:17:37;;;;;;;7.97;1.90;;;;;;;;;;5094964;28;20038;-75
2021/09/12 12:20:13;;;;;;;5.90;1.40;;;;;;;;;;5105722;28;20568;-74
2021/09/12 12:22:38;;;;;;;11.60;1.88;;;;;;;;;;5107434;28;20056;-74
2021/09/12 12:25:05;;;;;;;5.20;1.67;;;;;;;;;;5080022;28;20044;-74
2021/09/12 12:27:39;;;;;;;4.97;1.58;;;;;;;;;;5099044;28;20024;-74
2021/09/12 12:30:07;;;;;;;5.55;2.17;;;;;;;;;;5100761;28;20038;-74
2021/09/12 12:32:43;;;;;;;7.38;2.20;;;;;;;;;;5104907;28;20085;-74
2021/09/12 12:35:18;;;;;;;8.40;1.92;;;;;;;;;;5100674;28;20035;-75
2021/09/12 12:37:47;;;;;;;2.88;2.10;;;;;;;;;;5100629;28;20040;-75
2021/09/12 12:40:21;;;;;;;10.45;2.10;;;;;;;;;;5103998;28;20032;-75
2021/09/12 12:42:49;;;;;;;10.02;2.50;;;;;;;;;;5079893;28;20023;-74
2021/09/12 12:45:29;;;;;;;7.72;2.95;;;;;;;;;;5106349;28;20037;-75
2021/09/12 12:48:00;;;;;;;7.38;2.28;;;;;;;;;;5105658;28;20031;-75
2021/09/12 12:50:40;;;;;;;6.87;2.27;;;;;;;;;;5107371;28;20095;-75
2021/09/12 12:53:21;;;;;;;6.57;2.53;;;;;;;;;;5104288;28;20092;-76
2021/09/12 12:55:55;;;;;;;12.23;2.63;;;;;;;;;;5099013;28;20373;-76
2021/09/12 12:58:21;;;;;;;7.10;1.88;;;;;;;;;;5103820;28;20153;-75
2021/09/12 13:00:48;;;;;;;5.53;2.00;;;;;;;;;;5101538;28;20098;-76
2021/09/12 13:03:14;;;;;;;5.88;1.92;;;;;;;;;;5088791;28;20039;-75
2021/09/12 13:05:40;;;;;;;5.93;2.80;;;;;;;;;;5097906;28;20034;-76
2021/09/12 13:08:06;;;;;;;7.35;2.58;;;;;;;;;;5101301;28;20431;-75
2021/09/12 13:10:38;;;;;;;5.53;2.15;;;;;;;;;;5105630;28;20033;-75
2021/09/12 13:13:05;;;;;;;2.83;1.60;;;;;;;;;;5089422;28;20032;-75
2021/09/12 13:15:30;;;;;;;6.70;2.35;;;;;;;;;;5104373;28;20032;-75
2021/09/12 13:17:56;;;;;;;9.65;1.90;;;;;;;;;;5084483;28;20038;-75
2021/09/12 13:20:22;;;;;;;4.00;1.58;;;;;;;;;;5104075;28;20434;-75
2021/09/12 13:22:47;;;;;;;4.55;1.80;;;;;;;;;;5101398;28;20123;-75
2021/09/12 13:25:13;;;;;;;7.47;1.55;;;;;;;;;;5088621;28;20508;-76
2021/09/12 13:27:38;;;;;;;5.70;1.38;;;;;;;;;;5082023;28;20028;-76
2021/09/12 13:30:05;;;;;;;13.93;2.33;;;;;;;;;;5084515;28;20035;-75
2021/09/12 13:32:31;;;;;;;3.20;1.60;;;;;;;;;;5106506;28;20031;-76
2021/09/12 13:34:56;;;;;;;8.15;2.00;;;;;;;;;;5085993;28;20031;-75
2021/09/12 13:37:22;;;;;;;10.25;1.80;;;;;;;;;;5100398;28;20028;-75
2021/09/12 13:39:47;;;;;;;11.15;3.05;;;;;;;;;;5102881;28;20098;-76
2021/09/12 13:42:13;;;;;;;7.95;1.80;;;;;;;;;;5084906;28;20408;-76
2021/09/12 13:44:38;;;;;;;18.10;2.05;;;;;;;;;;5096766;28;20024;-75
2021/09/12 13:47:04;;;;;;;4.53;1.77;;;;;;;;;;5102441;28;20031;-75
2021/09/12 13:49:30;;;;;;;6.72;2.38;;;;;;;;;;5104615;28;20031;-75
2021/09/12 13:51:55;;;;;;;4.30;1.83;;;;;;;;;;5103543;28;20062;-75
2021/09/12 13:54:21;;;;;;;3.13;1.98;;;;;;;;;;5097609;28;20043;-76
2021/09/12 13:56:46;;;;;;;8.20;2.15;;;;;;;;;;5076051;28;20032;-75
2021/09/12 13:59:12;;;;;;;11.85;3.03;;;;;;;;;;5083487;28;20039;-76
2021/09/12 14:01:37;;;;;;;4.05;1.88;;;;;;;;;;5087470;28;20054;-76
2021/09/12 14:04:03;;;;;;;4.22;1.90;;;;;;;;;;5096760;28;20032;-75
2021/09/12 14:06:28;;;;;;;5.28;1.95;;;;;;;;;;5102867;28;20035;-76
2021/09/12 14:08:54;;;;;;;4.35;1.95;;;;;;;;;;5106849;28;20599;-75
2021/09/12 14:11:19;;;;;;;7.60;2.25;;;;;;;;;;5104559;28;20038;-76
2021/09/12 14:13:45;;;;;;;10.32;2.15;;;;;;;;;;5107524;28;20031;-75
2021/09/12 14:16:10;;;;;;;12.38;2.00;;;;;;;;;;5104829;28;20035;-76
2021/09/12 14:18:36;;;;;;;6.88;1.95;;;;;;;;;;5104422;28;20028;-76
2021/09/12 14:21:01;;;;;;;6.10;2.03;;;;;;;;;;5071951;28;20560;-76
2021/09/12 14:23:27;;;;;;;10.68;2.15;;;;;;;;;;5088529;28;20504;-75
2021/09/12 14:25:52;;;;;;;5.28;2.13;;;;;;;;;;5073442;28;20031;-75
2021/09/12 14:28:18;;;;;;;9.50;2.25;;;;;;;;;;5085812;28;20414;-75
2021/09/12 14:30:44;;;;;;;4.82;2.42;;;;;;;;;;5105198;28;20108;-75
2021/09/12 14:33:09;;;;;;;6.32;2.10;;;;;;;;;;5087033;28;20397;-76
2021/09/12 14:35:36;;;;;;;6.97;2.35;;;;;;;;;;5106808;28;20511;-76
2021/09/12 14:38:03;;;;;;;11.15;2.38;;;;;;;;;;5110621;28;20039;-75
2021/09/12 14:40:29;;;;;;;5.30;1.95;;;;;;;;;;5103967;28;20016;-75
2021/09/12 14:42:54;;;;;;;10.57;1.98;;;;;;;;;;5102669;28;20076;-76